Time;durP1;ratioP1;P1;durP2;ratioP2;P2;SDS_P1;SDS_P2;PMS_P1;PMS_P2;Temp;Humidity;BMP_temperature;BMP_pressure;BME280_temperature;BME280_humidity;BME280_pressure;Samples;Min_cycle;Max_cycle;Signal;HPM_P1;HPM_P2
2023/03/19 00:01:44;;;;;;;;;81.00;64.40;;;;;;;;5049240;29;8840;-73
2023/03/19 00:04:25;;;;;;;;;75.00;58.00;;;;;;;;5050231;29;8805;-76
2023/03/19 00:06:57;;;;;;;;;79.80;66.00;;;;;;;;5052656;29;8956;-76
2023/03/19 00:09:29;;;;;;;;;75.40;61.80;;;;;;;;5068553;29;8794;-76
2023/03/19 00:12:06;;;;;;;;;66.00;53.60;;;;;;;;5054559;29;8849;-77
2023/03/19 00:14:40;;;;;;;;;69.60;57.60;;;;;;;;5069610;29;8815;-76
2023/03/19 00:17:16;;;;;;;;;65.40;54.00;;;;;;;;5048624;29;8850;-77
2023/03/19 00:19:50;;;;;;;;;67.00;56.00;;;;;;;;5037088;29;8872;-78
2023/03/19 00:22:22;;;;;;;;;55.80;50.20;;;;;;;;5068815;29;8825;-79
2023/03/19 00:25:13;;;;;;;;;50.00;45.00;;;;;;;;5056549;29;8934;-78
2023/03/19 00:27:45;;;;;;;;;48.80;45.40;;;;;;;;5069204;29;9530;-76
2023/03/19 00:30:24;;;;;;;;;47.60;45.00;;;;;;;;5038242;29;9482;-75
2023/03/19 00:33:01;;;;;;;;;75.20;57.40;;;;;;;;5052320;29;8853;-76
2023/03/19 00:35:33;;;;;;;;;65.40;53.60;;;;;;;;5038861;29;8806;-76
2023/03/19 00:38:15;;;;;;;;;56.60;51.00;;;;;;;;5068902;29;8794;-76
2023/03/19 00:40:47;;;;;;;;;54.40;46.40;;;;;;;;5037690;29;8960;-76
2023/03/19 00:43:19;;;;;;;;;36.20;33.60;;;;;;;;5038241;29;9550;-78
2023/03/19 00:45:52;;;;;;;;;70.40;56.80;;;;;;;;5086073;29;8858;-79
2023/03/19 00:48:25;;;;;;;;;95.75;72.25;;;;;;;;5053207;29;8798;-79
2023/03/19 00:51:06;;;;;;;;;98.00;78.50;;;;;;;;5053444;29;8817;-79
2023/03/19 00:53:39;;;;;;;;;105.50;84.00;;;;;;;;5053171;29;8822;-80
2023/03/19 00:56:11;;;;;;;;;114.00;98.67;;;;;;;;5068683;29;8948;-80
2023/03/19 00:58:44;;;;;;;;;131.50;118.00;;;;;;;;5048684;29;9566;-80
2023/03/19 01:01:16;;;;;;;;;127.00;109.50;;;;;;;;5033578;29;10228;-80
2023/03/19 01:03:48;;;;;;;;;114.50;95.00;;;;;;;;5022032;29;10337;-80
2023/03/19 01:06:20;;;;;;;;;124.00;103.00;;;;;;;;5053036;29;10463;-76
2023/03/19 01:08:52;;;;;;;;;110.67;78.33;;;;;;;;5052777;29;10061;-76
2023/03/19 01:11:25;;;;;;;;;109.00;89.00;;;;;;;;5052874;29;9534;-76
2023/03/19 01:14:04;;;;;;;;;92.75;71.75;;;;;;;;5053798;29;8932;-76
2023/03/19 01:16:36;;;;;;;;;86.50;69.50;;;;;;;;5067866;29;8822;-76
2023/03/19 01:19:27;;;;;;;;;86.00;72.00;;;;;;;;5055568;29;8878;-77
2023/03/19 01:22:01;;;;;;;;;91.25;74.25;;;;;;;;5052783;29;8885;-76
2023/03/19 01:24:33;;;;;;;;;86.00;69.50;;;;;;;;5052846;29;8833;-76
2023/03/19 01:27:05;;;;;;;;;77.00;64.00;;;;;;;;5053005;29;8794;-76
2023/03/19 01:29:39;;;;;;;;;67.40;56.80;;;;;;;;5052876;29;8802;-76
2023/03/19 01:32:20;;;;;;;;;67.00;57.60;;;;;;;;5050352;29;8826;-75
2023/03/19 01:35:25;;;;;;;;;71.60;60.80;;;;;;;;5037842;29;9041;-76
2023/03/19 01:37:58;;;;;;;;;73.40;60.00;;;;;;;;5037520;29;8817;-80
2023/03/19 01:40:34;;;;;;;;;66.20;56.20;;;;;;;;5053049;29;8814;-80
2023/03/19 01:43:32;;;;;;;;;69.80;58.80;;;;;;;;5037094;29;8806;-78
2023/03/19 01:46:46;;;;;;;;;71.00;60.80;;;;;;;;5044268;29;8818;-78
2023/03/19 01:49:39;;;;;;;;;75.50;62.50;;;;;;;;5037038;29;9605;-79
2023/03/19 01:52:30;;;;;;;;;55.00;49.00;;;;;;;;5053064;29;8850;-82
2023/03/19 01:55:19;;;;;;;;;54.80;48.60;;;;;;;;5053979;29;8849;-80
2023/03/19 01:58:13;;;;;;;;;44.20;42.00;;;;;;;;5054650;29;8798;-80
2023/03/19 02:01:03;;;;;;;;;38.60;37.40;;;;;;;;5067116;29;8817;-79
2023/03/19 02:03:37;;;;;;;;;41.20;40.80;;;;;;;;5051523;29;8834;-75
2023/03/19 02:06:22;;;;;;;;;37.40;36.40;;;;;;;;5052234;29;8794;-81
2023/03/19 02:08:55;;;;;;;;;25.20;25.20;;;;;;;;5051764;29;8826;-81
2023/03/19 02:11:32;;;;;;;;;39.20;37.40;;;;;;;;5051934;29;8877;-81
2023/03/19 02:14:06;;;;;;;;;39.40;38.20;;;;;;;;5047558;29;8863;-81
2023/03/19 02:16:40;;;;;;;;;36.20;34.00;;;;;;;;5017839;29;8943;-80
2023/03/19 02:19:15;;;;;;;;;42.00;40.20;;;;;;;;5040177;29;8823;-76
2023/03/19 02:22:08;;;;;;;;;34.00;29.00;;;;;;;;5051683;29;8826;-76
2023/03/19 02:24:52;;;;;;;;;26.60;24.60;;;;;;;;5051875;29;8834;-75
2023/03/19 02:27:43;;;;;;;;;19.80;19.60;;;;;;;;5053980;29;8802;-77
2023/03/19 02:30:25;;;;;;;;;22.80;21.60;;;;;;;;5050701;29;8828;-74
2023/03/19 02:32:58;;;;;;;;;15.80;15.80;;;;;;;;5066307;29;9565;-82
2023/03/19 02:35:32;;;;;;;;;14.20;14.20;;;;;;;;5031433;29;8970;-75
2023/03/19 02:38:05;;;;;;;;;21.80;21.80;;;;;;;;5038556;29;8987;-80
2023/03/19 02:40:44;;;;;;;;;16.40;15.60;;;;;;;;5062228;29;8822;-81
2023/03/19 02:43:16;;;;;;;;;10.80;10.80;;;;;;;;5051297;29;8855;-85
2023/03/19 02:45:48;;;;;;;;;21.40;20.60;;;;;;;;5052108;29;8783;-85
2023/03/19 02:48:19;;;;;;;;;24.80;23.60;;;;;;;;5081959;29;8955;-83
2023/03/19 02:50:51;;;;;;;;;31.00;30.00;;;;;;;;5044346;29;9715;-80
2023/03/19 02:53:22;;;;;;;;;20.60;20.20;;;;;;;;5051331;29;8846;-78
2023/03/19 02:55:56;;;;;;;;;24.20;22.00;;;;;;;;5067175;29;8881;-78
2023/03/19 02:58:27;;;;;;;;;19.40;19.00;;;;;;;;5052121;29;8786;-79
2023/03/19 03:00:59;;;;;;;;;18.40;17.20;;;;;;;;5066588;29;8998;-79
2023/03/19 03:03:31;;;;;;;;;19.80;19.80;;;;;;;;5047533;29;8874;-77
2023/03/19 03:06:02;;;;;;;;;18.00;17.20;;;;;;;;5032130;29;8831;-77
2023/03/19 03:08:38;;;;;;;;;18.00;17.80;;;;;;;;5032350;29;8808;-77
2023/03/19 03:11:10;;;;;;;;;14.20;12.20;;;;;;;;5017122;29;8845;-79
2023/03/19 03:14:03;;;;;;;;;10.00;10.00;;;;;;;;5056760;29;8828;-78
2023/03/19 03:16:36;;;;;;;;;10.40;9.60;;;;;;;;5063445;29;8946;-77
2023/03/19 03:19:10;;;;;;;;;20.00;17.60;;;;;;;;5034995;29;8850;-77
2023/03/19 03:21:41;;;;;;;;;8.80;8.80;;;;;;;;5051268;29;8835;-76
2023/03/19 03:24:15;;;;;;;;;16.80;16.80;;;;;;;;5050764;29;9670;-76
2023/03/19 03:26:48;;;;;;;;;13.00;13.00;;;;;;;;5050870;29;8808;-77
2023/03/19 03:29:26;;;;;;;;;14.80;13.80;;;;;;;;5045312;29;8817;-76
2023/03/19 03:31:59;;;;;;;;;25.20;22.00;;;;;;;;5011327;29;9612;-76
2023/03/19 03:34:31;;;;;;;;;17.40;15.60;;;;;;;;5035146;29;8839;-77
2023/03/19 03:37:03;;;;;;;;;10.00;10.00;;;;;;;;5030845;29;8810;-77
2023/03/19 03:39:36;;;;;;;;;12.00;10.80;;;;;;;;5031652;29;8827;-76
2023/03/19 03:42:12;;;;;;;;;6.00;6.00;;;;;;;;5033990;29;8822;-76
2023/03/19 03:44:45;;;;;;;;;37.80;36.20;;;;;;;;5034676;29;8838;-77
2023/03/19 03:47:18;;;;;;;;;40.20;40.20;;;;;;;;5039660;29;8959;-77
2023/03/19 03:49:52;;;;;;;;;23.60;21.80;;;;;;;;5042764;29;8821;-77
2023/03/19 03:52:49;;;;;;;;;6.20;6.20;;;;;;;;5050339;29;9647;-81
2023/03/19 03:55:20;;;;;;;;;26.60;25.00;;;;;;;;5035404;29;8852;-80
2023/03/19 03:57:53;;;;;;;;;15.20;13.80;;;;;;;;5026309;29;8992;-80
2023/03/19 04:00:25;;;;;;;;;21.20;21.20;;;;;;;;5035401;29;8947;-79
2023/03/19 04:03:04;;;;;;;;;23.60;22.40;;;;;;;;5052529;29;8868;-79
2023/03/19 04:05:36;;;;;;;;;15.80;15.40;;;;;;;;5046717;29;8935;-78
2023/03/19 04:08:08;;;;;;;;;16.80;16.80;;;;;;;;5043213;29;8850;-80
2023/03/19 04:10:41;;;;;;;;;4.40;4.40;;;;;;;;5031061;29;8791;-74
2023/03/19 04:13:13;;;;;;;;;9.00;7.80;;;;;;;;5045837;29;8859;-74
2023/03/19 04:15:45;;;;;;;;;20.20;20.20;;;;;;;;5045699;29;8814;-74
2023/03/19 04:18:17;;;;;;;;;12.80;12.60;;;;;;;;5046237;29;8815;-74
2023/03/19 04:20:54;;;;;;;;;10.00;10.00;;;;;;;;5034001;29;8856;-77
2023/03/19 04:23:29;;;;;;;;;25.00;24.40;;;;;;;;5049890;29;11703;-75
2023/03/19 04:26:20;;;;;;;;;27.60;27.60;;;;;;;;5030505;29;8837;-76
2023/03/19 04:28:51;;;;;;;;;46.20;42.80;;;;;;;;5045601;29;8956;-76
2023/03/19 04:31:22;;;;;;;;;39.20;38.20;;;;;;;;5027257;29;8863;-76
2023/03/19 04:33:53;;;;;;;;;36.60;34.40;;;;;;;;5048444;29;8962;-75
2023/03/19 04:36:25;;;;;;;;;28.50;26.00;;;;;;;;5034767;29;8950;-77
2023/03/19 04:39:14;;;;;;;;;45.00;39.60;;;;;;;;5049651;29;9237;-77
2023/03/19 04:41:46;;;;;;;;;14.40;14.40;;;;;;;;5034269;29;8846;-73
2023/03/19 04:44:40;;;;;;;;;9.00;9.00;;;;;;;;5033974;29;8950;-83
2023/03/19 04:47:14;;;;;;;;;9.80;9.80;;;;;;;;5032242;29;8854;-80
2023/03/19 04:50:06;;;;;;;;;7.80;7.80;;;;;;;;5052237;29;8816;-79
2023/03/19 04:52:39;;;;;;;;;11.80;9.00;;;;;;;;5033795;29;8867;-79
2023/03/19 04:55:13;;;;;;;;;8.00;8.00;;;;;;;;5064373;29;8850;-80
2023/03/19 04:57:57;;;;;;;;;10.00;10.00;;;;;;;;5047328;29;8899;-78
2023/03/19 05:00:37;;;;;;;;;10.00;10.00;;;;;;;;5019786;29;8855;-76
2023/03/19 05:03:27;;;;;;;;;13.60;13.60;;;;;;;;5044600;29;8934;-76
2023/03/19 05:05:58;;;;;;;;;13.60;13.60;;;;;;;;5057393;29;8814;-80
2023/03/19 05:08:30;;;;;;;;;17.80;16.60;;;;;;;;5035722;29;8844;-77
2023/03/19 05:11:01;;;;;;;;;16.00;16.00;;;;;;;;5049461;29;8974;-76
2023/03/19 05:13:39;;;;;;;;;13.40;13.40;;;;;;;;5067032;29;9631;-77
2023/03/19 05:16:12;;;;;;;;;10.80;10.80;;;;;;;;5066465;29;8830;-77
2023/03/19 05:18:43;;;;;;;;;11.20;11.20;;;;;;;;5051101;29;8830;-78
2023/03/19 05:21:15;;;;;;;;;10.80;10.80;;;;;;;;5035522;29;8880;-76
2023/03/19 05:24:05;;;;;;;;;10.00;7.60;;;;;;;;5069111;29;8809;-76
2023/03/19 05:26:40;;;;;;;;;8.40;8.40;;;;;;;;5050672;29;8829;-78
2023/03/19 05:29:27;;;;;;;;;10.40;10.00;;;;;;;;5066393;29;8817;-77
2023/03/19 05:32:14;;;;;;;;;9.40;8.80;;;;;;;;5046282;29;8851;-78
2023/03/19 05:34:47;;;;;;;;;10.20;10.00;;;;;;;;5035873;29;8825;-78
2023/03/19 05:37:18;;;;;;;;;7.00;7.00;;;;;;;;5046578;29;8844;-75
2023/03/19 05:39:55;;;;;;;;;13.60;13.20;;;;;;;;5077636;29;8838;-77
2023/03/19 05:42:26;;;;;;;;;11.20;10.20;;;;;;;;5054227;29;8905;-78
2023/03/19 05:44:59;;;;;;;;;10.00;8.40;;;;;;;;5062667;29;8816;-78
2023/03/19 05:47:38;;;;;;;;;17.60;17.40;;;;;;;;5064296;29;8952;-80
2023/03/19 05:50:10;;;;;;;;;13.40;13.40;;;;;;;;5075346;29;8822;-82
2023/03/19 05:52:42;;;;;;;;;7.00;7.00;;;;;;;;5050067;29;8877;-79
2023/03/19 05:55:14;;;;;;;;;13.40;13.20;;;;;;;;5046187;29;8871;-78
2023/03/19 05:57:52;;;;;;;;;21.20;20.60;;;;;;;;5052451;29;8841;-78
2023/03/19 06:00:41;;;;;;;;;19.00;19.00;;;;;;;;5047361;29;9205;-78
2023/03/19 06:03:13;;;;;;;;;18.20;17.80;;;;;;;;5049529;29;8868;-79
2023/03/19 06:05:53;;;;;;;;;22.00;21.00;;;;;;;;5045956;29;8851;-80
2023/03/19 06:08:42;;;;;;;;;15.40;14.80;;;;;;;;5046159;29;9607;-80
2023/03/19 06:11:30;;;;;;;;;2.00;2.00;;;;;;;;5029837;29;8894;-79
2023/03/19 06:14:22;;;;;;;;;10.00;10.00;;;;;;;;5032061;29;8871;-83
2023/03/19 06:17:11;;;;;;;;;8.00;7.60;;;;;;;;5052148;29;9737;-81
2023/03/19 06:19:43;;;;;;;;;11.80;11.00;;;;;;;;5065239;29;9644;-81
2023/03/19 06:22:15;;;;;;;;;8.20;7.80;;;;;;;;5033600;29;9526;-80
2023/03/19 06:24:47;;;;;;;;;7.00;7.00;;;;;;;;5049990;29;9565;-78
2023/03/19 06:27:17;;;;;;;;;5.00;5.00;;;;;;;;5032280;29;8850;-79
2023/03/19 06:29:49;;;;;;;;;5.00;5.00;;;;;;;;5049435;29;8833;-81
2023/03/19 06:32:26;;;;;;;;;12.20;12.20;;;;;;;;5051348;29;8841;-78
2023/03/19 06:34:58;;;;;;;;;6.40;6.40;;;;;;;;5065863;29;8820;-79
2023/03/19 06:37:29;;;;;;;;;3.60;3.60;;;;;;;;5031126;29;8838;-77
2023/03/19 06:40:19;;;;;;;;;3.20;3.20;;;;;;;;5049049;29;8850;-77
2023/03/19 06:42:55;;;;;;;;;4.20;4.20;;;;;;;;5063063;29;8819;-76
2023/03/19 06:45:26;;;;;;;;;4.00;4.00;;;;;;;;5033800;29;8822;-78
2023/03/19 06:48:01;;;;;;;;;13.00;13.00;;;;;;;;5061986;29;8848;-82
2023/03/19 06:50:32;;;;;;;;;19.80;18.80;;;;;;;;5066785;29;8908;-81
2023/03/19 06:53:21;;;;;;;;;10.60;10.60;;;;;;;;5055352;29;8853;-82
2023/03/19 06:56:11;;;;;;;;;9.00;9.00;;;;;;;;5070195;29;8841;-80
2023/03/19 06:58:42;;;;;;;;;7.20;6.40;;;;;;;;5051448;29;8872;-81
2023/03/19 07:01:13;;;;;;;;;5.00;5.00;;;;;;;;5060295;29;8841;-81
2023/03/19 07:03:44;;;;;;;;;7.20;5.80;;;;;;;;5050380;29;8874;-80
2023/03/19 07:06:15;;;;;;;;;7.60;7.60;;;;;;;;5084932;29;9675;-82
2023/03/19 07:09:04;;;;;;;;;9.20;8.20;;;;;;;;5070086;29;8932;-82
2023/03/19 07:11:36;;;;;;;;;18.75;18.75;;;;;;;;5087074;29;8814;-82
2023/03/19 07:14:07;;;;;;;;;15.60;15.60;;;;;;;;5054380;29;9588;-78
2023/03/19 07:16:38;;;;;;;;;8.60;8.60;;;;;;;;5087391;29;8797;-82
2023/03/19 07:19:09;;;;;;;;;5.40;5.40;;;;;;;;5086878;29;8794;-81
2023/03/19 07:21:40;;;;;;;;;5.40;5.40;;;;;;;;5039553;29;8829;-81
2023/03/19 07:24:11;;;;;;;;;5.00;5.00;;;;;;;;5035790;29;8812;-80
2023/03/19 07:26:42;;;;;;;;;5.00;5.00;;;;;;;;5086620;29;9021;-79
2023/03/19 07:29:14;;;;;;;;;2.00;2.00;;;;;;;;5054353;29;8822;-77
2023/03/19 07:31:45;;;;;;;;;7.00;7.00;;;;;;;;5069829;29;9080;-80
2023/03/19 07:34:35;;;;;;;;;6.00;6.00;;;;;;;;5094007;29;8819;-81
2023/03/19 07:37:06;;;;;;;;;0.00;0.00;;;;;;;;5041282;29;8924;-81
2023/03/19 07:39:37;;;;;;;;;2.00;2.00;;;;;;;;5086909;29;8847;-82
2023/03/19 07:42:09;;;;;;;;;1.00;1.00;;;;;;;;5054140;29;8826;-82
2023/03/19 07:45:01;;;;;;;;;2.40;2.40;;;;;;;;5050360;29;8995;-81
2023/03/19 07:47:32;;;;;;;;;12.40;12.40;;;;;;;;5053163;29;8857;-80
2023/03/19 07:50:03;;;;;;;;;4.00;4.00;;;;;;;;5054112;29;8809;-80
2023/03/19 07:52:34;;;;;;;;;3.00;3.00;;;;;;;;5069912;29;8845;-81
2023/03/19 07:55:05;;;;;;;;;5.40;5.00;;;;;;;;5038647;29;8822;-81
2023/03/19 07:57:37;;;;;;;;;0.00;0.00;;;;;;;;5069407;29;8849;-81
2023/03/19 08:00:09;;;;;;;;;0.60;0.60;;;;;;;;5050054;29;8890;-81
2023/03/19 08:02:48;;;;;;;;;1.20;1.20;;;;;;;;5040518;29;8987;-82
2023/03/19 08:05:19;;;;;;;;;7.60;5.00;;;;;;;;5048901;29;8954;-83
2023/03/19 08:07:51;;;;;;;;;3.20;3.20;;;;;;;;5068962;29;9703;-80
2023/03/19 08:10:40;;;;;;;;;4.60;4.20;;;;;;;;5052857;29;8856;-79
2023/03/19 08:13:13;;;;;;;;;5.00;5.00;;;;;;;;5053636;29;8840;-79
2023/03/19 08:16:02;;;;;;;;;10.80;10.80;;;;;;;;5071254;29;8920;-79
2023/03/19 08:18:51;;;;;;;;;3.40;3.40;;;;;;;;5069035;29;8857;-78
2023/03/19 08:21:22;;;;;;;;;1.80;1.80;;;;;;;;5052732;29;8972;-80
2023/03/19 08:23:53;;;;;;;;;3.25;3.25;;;;;;;;5069394;29;8960;-79
2023/03/19 08:26:25;;;;;;;;;1.80;1.40;;;;;;;;5069558;29;8825;-80
2023/03/19 08:28:56;;;;;;;;;2.20;2.20;;;;;;;;5053683;29;9000;-80
2023/03/19 08:31:27;;;;;;;;;2.00;2.00;;;;;;;;5069085;29;8935;-78
2023/03/19 08:34:02;;;;;;;;;1.60;1.60;;;;;;;;5071131;29;11587;-79
2023/03/19 08:36:33;;;;;;;;;2.40;2.40;;;;;;;;5088651;29;8834;-78
2023/03/19 08:39:05;;;;;;;;;0.00;0.00;;;;;;;;5098217;29;8829;-78
2023/03/19 08:41:36;;;;;;;;;2.00;2.00;;;;;;;;5074209;29;10118;-78
2023/03/19 08:44:07;;;;;;;;;0.60;0.60;;;;;;;;5055418;29;8825;-77
2023/03/19 08:46:38;;;;;;;;;14.40;14.40;;;;;;;;5074657;29;8814;-81
2023/03/19 08:49:28;;;;;;;;;2.40;2.40;;;;;;;;5049138;29;8950;-81
2023/03/19 08:51:59;;;;;;;;;0.80;0.80;;;;;;;;5049216;29;8877;-80
2023/03/19 08:54:48;;;;;;;;;1.00;1.00;;;;;;;;5052154;29;8831;-82
2023/03/19 08:57:20;;;;;;;;;5.50;5.50;;;;;;;;5048014;29;8818;-83
2023/03/19 09:00:09;;;;;;;;;3.00;3.00;;;;;;;;5068652;29;8817;-79
2023/03/19 09:02:59;;;;;;;;;2.60;2.60;;;;;;;;5055262;29;8972;-81
2023/03/19 09:05:30;;;;;;;;;2.00;2.00;;;;;;;;5070941;29;8821;-79
2023/03/19 09:08:01;;;;;;;;;3.25;3.25;;;;;;;;5078861;29;9546;-81
2023/03/19 09:10:31;;;;;;;;;5.25;5.25;;;;;;;;5042898;29;8846;-81
2023/03/19 09:13:03;;;;;;;;;2.00;2.00;;;;;;;;5052466;29;11644;-81
2023/03/19 09:15:34;;;;;;;;;6.00;6.00;;;;;;;;5024340;29;11538;-81
2023/03/19 09:18:05;;;;;;;;;5.00;5.00;;;;;;;;5053596;29;8831;-80
2023/03/19 09:20:36;;;;;;;;;4.60;4.60;;;;;;;;5046827;29;8974;-79
2023/03/19 09:23:07;;;;;;;;;1.40;1.40;;;;;;;;5050436;29;8834;-80
2023/03/19 09:25:39;;;;;;;;;2.75;2.75;;;;;;;;5060380;29;8818;-81
2023/03/19 09:28:10;;;;;;;;;4.60;4.60;;;;;;;;5044657;29;11597;-82
2023/03/19 09:30:41;;;;;;;;;7.00;7.00;;;;;;;;5045038;29;8818;-81
2023/03/19 09:33:13;;;;;;;;;6.00;6.00;;;;;;;;5072065;29;8867;-80
2023/03/19 09:35:48;;;;;;;;;13.60;13.40;;;;;;;;5056727;29;8833;-78
2023/03/19 09:38:20;;;;;;;;;5.00;5.00;;;;;;;;5064253;29;8915;-78
2023/03/19 09:41:06;;;;;;;;;0.00;0.00;;;;;;;;5064290;29;8943;-79
2023/03/19 09:43:39;;;;;;;;;1.80;1.80;;;;;;;;5068819;29;8821;-79
2023/03/19 09:46:17;;;;;;;;;0.00;0.00;;;;;;;;5051905;29;8798;-78
2023/03/19 09:48:49;;;;;;;;;1.00;1.00;;;;;;;;5077964;29;8862;-79
2023/03/19 09:51:25;;;;;;;;;0.00;0.00;;;;;;;;5058541;29;8841;-80
2023/03/19 09:53:59;;;;;;;;;2.40;2.40;;;;;;;;5023672;29;8836;-78
2023/03/19 09:56:31;;;;;;;;;2.00;2.00;;;;;;;;5063808;29;8824;-76
2023/03/19 09:59:02;;;;;;;;;1.00;1.00;;;;;;;;5043887;29;8882;-77
2023/03/19 10:01:35;;;;;;;;;1.20;1.20;;;;;;;;5058683;29;8910;-77
2023/03/19 10:04:06;;;;;;;;;2.00;2.00;;;;;;;;5031100;29;8816;-76
2023/03/19 10:06:41;;;;;;;;;2.00;2.00;;;;;;;;5055313;29;8816;-75
2023/03/19 10:09:15;;;;;;;;;2.00;2.00;;;;;;;;5050057;29;8845;-78
2023/03/19 10:12:22;;;;;;;;;1.60;1.60;;;;;;;;5052462;29;8841;-78
2023/03/19 10:15:13;;;;;;;;;2.00;2.00;;;;;;;;5066248;29;8809;-76
2023/03/19 10:17:44;;;;;;;;;2.00;2.00;;;;;;;;5050104;29;8933;-75
2023/03/19 10:20:28;;;;;;;;;3.00;3.00;;;;;;;;5050027;29;9637;-78
2023/03/19 10:23:22;;;;;;;;;24.20;23.60;;;;;;;;5065371;29;9687;-76
2023/03/19 10:25:55;;;;;;;;;7.00;7.00;;;;;;;;5057415;29;8858;-80
2023/03/19 10:28:27;;;;;;;;;7.00;7.00;;;;;;;;5068809;29;9358;-79
2023/03/19 10:31:23;;;;;;;;;2.00;2.00;;;;;;;;5055582;29;8813;-78
2023/03/19 10:34:19;;;;;;;;;5.80;5.80;;;;;;;;5072289;29;8846;-79
2023/03/19 10:36:57;;;;;;;;;5.80;5.80;;;;;;;;5073482;29;8859;-79
2023/03/19 10:39:29;;;;;;;;;2.40;2.40;;;;;;;;5073424;29;8950;-80
2023/03/19 10:42:15;;;;;;;;;2.20;2.20;;;;;;;;5050237;29;9556;-81
2023/03/19 10:45:01;;;;;;;;;5.00;5.00;;;;;;;;5035047;29;8850;-79
2023/03/19 10:47:38;;;;;;;;;5.00;5.00;;;;;;;;5049774;29;8835;-78
2023/03/19 10:50:14;;;;;;;;;4.40;4.40;;;;;;;;5034647;29;8816;-79
2023/03/19 10:52:50;;;;;;;;;1.40;1.40;;;;;;;;5034424;29;8856;-78
2023/03/19 10:55:25;;;;;;;;;0.80;0.80;;;;;;;;5034784;29;8816;-81
2023/03/19 10:58:15;;;;;;;;;7.20;7.20;;;;;;;;5035693;29;8808;-79
2023/03/19 11:00:46;;;;;;;;;1.60;1.60;;;;;;;;5018991;29;8820;-79
2023/03/19 11:03:31;;;;;;;;;1.60;1.60;;;;;;;;5018830;29;9575;-79
2023/03/19 11:06:14;;;;;;;;;2.00;2.00;;;;;;;;5051692;29;9545;-80
2023/03/19 11:08:58;;;;;;;;;5.60;4.80;;;;;;;;5069139;29;8798;-78
2023/03/19 11:11:41;;;;;;;;;2.00;2.00;;;;;;;;5085776;29;8806;-78
2023/03/19 11:14:16;;;;;;;;;6.40;6.40;;;;;;;;5068926;29;8822;-78
2023/03/19 11:16:58;;;;;;;;;10.60;10.60;;;;;;;;5085793;29;8806;-76
2023/03/19 11:19:29;;;;;;;;;2.80;2.00;;;;;;;;5069041;29;8794;-78
2023/03/19 11:22:01;;;;;;;;;1.60;1.60;;;;;;;;5033424;29;8824;-77
2023/03/19 11:24:33;;;;;;;;;3.80;3.00;;;;;;;;5065850;29;8812;-77
2023/03/19 11:27:04;;;;;;;;;1.20;1.20;;;;;;;;5083840;29;8826;-81
2023/03/19 11:29:42;;;;;;;;;3.00;3.00;;;;;;;;5070014;29;8790;-76
2023/03/19 11:32:46;;;;;;;;;2.00;2.00;;;;;;;;5050975;29;8995;-79
2023/03/19 11:35:20;;;;;;;;;1.80;1.80;;;;;;;;5051860;29;8808;-79
2023/03/19 11:37:59;;;;;;;;;1.00;1.00;;;;;;;;5048467;29;8836;-78
2023/03/19 11:40:41;;;;;;;;;2.00;2.00;;;;;;;;5035216;29;8871;-77
2023/03/19 11:43:15;;;;;;;;;3.00;3.00;;;;;;;;5054357;29;8924;-76
2023/03/19 11:45:46;;;;;;;;;1.00;1.00;;;;;;;;5086406;29;8790;-77
2023/03/19 11:48:36;;;;;;;;;1.00;1.00;;;;;;;;5054148;29;8821;-76
2023/03/19 11:51:18;;;;;;;;;1.00;1.00;;;;;;;;5070149;29;8977;-79
2023/03/19 11:54:02;;;;;;;;;1.00;1.00;;;;;;;;5065369;29;8820;-80
2023/03/19 11:56:45;;;;;;;;;1.00;1.00;;;;;;;;5049357;29;8808;-79
2023/03/19 11:59:19;;;;;;;;;1.00;1.00;;;;;;;;5049644;29;8800;-76
2023/03/19 12:02:09;;;;;;;;;2.20;2.20;;;;;;;;5037116;29;8917;-79
2023/03/19 12:04:58;;;;;;;;;9.80;9.80;;;;;;;;5069525;29;8782;-84
2023/03/19 12:07:32;;;;;;;;;1.00;1.00;;;;;;;;5054179;29;8817;-77
2023/03/19 12:10:15;;;;;;;;;41.40;38.80;;;;;;;;5069287;29;8798;-78
2023/03/19 12:13:07;;;;;;;;;2.00;2.00;;;;;;;;5069399;29;8826;-76
2023/03/19 12:15:47;;;;;;;;;5.00;5.00;;;;;;;;5069708;29;8897;-77
2023/03/19 12:18:27;;;;;;;;;2.00;2.00;;;;;;;;5053722;29;8869;-76
2023/03/19 12:21:01;;;;;;;;;4.60;4.20;;;;;;;;5068518;29;8952;-80
2023/03/19 12:23:35;;;;;;;;;9.40;9.40;;;;;;;;5038278;29;8822;-81
2023/03/19 12:26:07;;;;;;;;;2.80;2.80;;;;;;;;5053669;29;8802;-77
2023/03/19 12:28:50;;;;;;;;;3.40;3.40;;;;;;;;5069140;29;8921;-77
2023/03/19 12:31:36;;;;;;;;;2.00;2.00;;;;;;;;5069852;29;9636;-76
2023/03/19 12:34:22;;;;;;;;;1.80;1.80;;;;;;;;5056776;29;8816;-77
2023/03/19 12:36:57;;;;;;;;;0.80;0.40;;;;;;;;5095850;29;8921;-78
2023/03/19 12:39:34;;;;;;;;;14.40;14.40;;;;;;;;5069197;29;8821;-78
2023/03/19 12:42:08;;;;;;;;;2.00;2.00;;;;;;;;5054173;29;8837;-76
2023/03/19 12:44:42;;;;;;;;;2.80;2.80;;;;;;;;5052905;29;8842;-77
2023/03/19 12:47:21;;;;;;;;;1.00;1.00;;;;;;;;5068991;29;8980;-78
2023/03/19 12:50:12;;;;;;;;;1.40;1.40;;;;;;;;5071068;29;8802;-77
2023/03/19 12:52:45;;;;;;;;;1.80;1.80;;;;;;;;5068812;29;8857;-77
2023/03/19 12:55:35;;;;;;;;;0.60;0.60;;;;;;;;5068519;29;8940;-77
2023/03/19 12:58:25;;;;;;;;;4.60;3.80;;;;;;;;5068425;29;8884;-75
2023/03/19 13:01:17;;;;;;;;;9.20;9.20;;;;;;;;5086037;29;8826;-75
2023/03/19 13:03:51;;;;;;;;;5.00;5.00;;;;;;;;5068571;29;8798;-77
2023/03/19 13:06:27;;;;;;;;;5.80;5.80;;;;;;;;5085377;29;8794;-75
2023/03/19 13:08:57;;;;;;;;;7.60;7.60;;;;;;;;5068471;29;8818;-80
2023/03/19 13:11:34;;;;;;;;;7.00;7.00;;;;;;;;5081477;29;8831;-76
2023/03/19 13:14:14;;;;;;;;;7.00;7.00;;;;;;;;5051112;29;8941;-76
2023/03/19 13:16:54;;;;;;;;;5.40;5.40;;;;;;;;5050997;29;8794;-77
2023/03/19 13:19:25;;;;;;;;;2.00;2.00;;;;;;;;5051375;29;8802;-76
2023/03/19 13:22:18;;;;;;;;;2.60;2.60;;;;;;;;5068471;29;8833;-75
2023/03/19 13:24:51;;;;;;;;;1.80;1.80;;;;;;;;5066750;29;8806;-74
2023/03/19 13:27:25;;;;;;;;;1.80;1.80;;;;;;;;5066222;29;8802;-75
2023/03/19 13:30:02;;;;;;;;;4.60;4.60;;;;;;;;5035174;29;8829;-75
2023/03/19 13:32:42;;;;;;;;;5.00;5.00;;;;;;;;5065710;29;8846;-76
2023/03/19 13:35:26;;;;;;;;;15.20;15.20;;;;;;;;5037348;29;8828;-77
2023/03/19 13:38:00;;;;;;;;;7.00;7.00;;;;;;;;5066600;29;8880;-77
2023/03/19 13:40:39;;;;;;;;;9.60;9.60;;;;;;;;5066168;29;9517;-76
2023/03/19 13:43:40;;;;;;;;;9.40;9.40;;;;;;;;5067623;29;9530;-77
2023/03/19 13:46:12;;;;;;;;;18.00;17.40;;;;;;;;5035599;29;8825;-74
2023/03/19 13:48:44;;;;;;;;;15.60;15.00;;;;;;;;5056946;29;8842;-76
2023/03/19 13:51:18;;;;;;;;;20.60;19.00;;;;;;;;5052488;29;8844;-78
2023/03/19 13:54:11;;;;;;;;;10.00;10.00;;;;;;;;5082467;29;8856;-76
2023/03/19 13:57:04;;;;;;;;;11.00;11.00;;;;;;;;5050730;29;8794;-76
2023/03/19 13:59:37;;;;;;;;;7.00;7.00;;;;;;;;5050157;29;9040;-75
2023/03/19 14:02:20;;;;;;;;;7.00;7.00;;;;;;;;5049462;29;8857;-75
2023/03/19 14:04:57;;;;;;;;;7.80;7.80;;;;;;;;5065947;29;8798;-75
2023/03/19 14:07:29;;;;;;;;;10.00;10.00;;;;;;;;5082839;29;8811;-74
2023/03/19 14:10:01;;;;;;;;;5.40;5.40;;;;;;;;5065782;29;9554;-75
2023/03/19 14:12:35;;;;;;;;;11.60;10.20;;;;;;;;5065531;29;8841;-75
2023/03/19 14:15:06;;;;;;;;;12.20;11.40;;;;;;;;5065392;29;9565;-76
2023/03/19 14:17:44;;;;;;;;;9.00;9.00;;;;;;;;5065119;29;8831;-76
2023/03/19 14:20:15;;;;;;;;;13.60;13.20;;;;;;;;5030659;29;9534;-76
2023/03/19 14:22:57;;;;;;;;;10.20;10.20;;;;;;;;5037299;29;8857;-75
2023/03/19 14:25:47;;;;;;;;;13.80;13.80;;;;;;;;5051707;29;9568;-74
2023/03/19 14:28:19;;;;;;;;;9.00;7.80;;;;;;;;5047845;29;8816;-76
2023/03/19 14:30:50;;;;;;;;;10.00;10.00;;;;;;;;5055308;29;8821;-74
2023/03/19 14:33:27;;;;;;;;;9.00;8.80;;;;;;;;5065109;29;8842;-75
2023/03/19 14:36:01;;;;;;;;;7.00;7.00;;;;;;;;5041254;29;8836;-75
2023/03/19 14:39:11;;;;;;;;;8.60;8.60;;;;;;;;5070846;29;8796;-75
2023/03/19 14:41:43;;;;;;;;;14.40;11.60;;;;;;;;5023861;29;8819;-75
2023/03/19 14:44:32;;;;;;;;;7.60;7.60;;;;;;;;4992918;29;8852;-76
2023/03/19 14:47:03;;;;;;;;;5.40;4.80;;;;;;;;5027684;29;8841;-76
2023/03/19 14:49:52;;;;;;;;;11.50;11.50;;;;;;;;5050914;29;8831;-75
2023/03/19 14:52:46;;;;;;;;;19.20;19.00;;;;;;;;5051215;29;8822;-75
2023/03/19 14:55:17;;;;;;;;;8.20;8.20;;;;;;;;5044191;29;8787;-75
2023/03/19 14:57:48;;;;;;;;;14.60;13.80;;;;;;;;5051514;29;9499;-77
2023/03/19 15:00:20;;;;;;;;;24.00;23.25;;;;;;;;5051168;29;8842;-75
2023/03/19 15:02:51;;;;;;;;;35.80;33.80;;;;;;;;5046956;29;11131;-75
2023/03/19 15:05:30;;;;;;;;;42.60;37.00;;;;;;;;5051738;29;8921;-75
2023/03/19 15:08:06;;;;;;;;;39.20;38.20;;;;;;;;5066705;29;8829;-76
2023/03/19 15:10:46;;;;;;;;;115.00;92.00;;;;;;;;5035990;29;8787;-73
2023/03/19 15:13:28;;;;;;;;;42.40;37.20;;;;;;;;5051298;29;8970;-77
2023/03/19 15:16:21;;;;;;;;;34.60;32.40;;;;;;;;5069879;29;8891;-83
2023/03/19 15:18:52;;;;;;;;;42.20;34.40;;;;;;;;5039631;29;8794;-82
2023/03/19 15:21:23;;;;;;;;;38.80;37.60;;;;;;;;5044935;29;8843;-79
2023/03/19 15:24:15;;;;;;;;;40.20;37.60;;;;;;;;5059178;29;8838;-76
2023/03/19 15:26:45;;;;;;;;;42.20;36.20;;;;;;;;5087358;29;8832;-75
2023/03/19 15:29:16;;;;;;;;;38.00;34.75;;;;;;;;5069981;29;8810;-75
2023/03/19 15:31:49;;;;;;;;;35.75;34.25;;;;;;;;5069709;29;9726;-75
2023/03/19 15:34:24;;;;;;;;;34.60;33.20;;;;;;;;5059324;29;8806;-73
2023/03/19 15:37:11;;;;;;;;;34.00;30.20;;;;;;;;5058612;29;8796;-74
2023/03/19 15:40:01;;;;;;;;;25.60;25.20;;;;;;;;5076219;29;8805;-74
2023/03/19 15:42:34;;;;;;;;;32.00;27.60;;;;;;;;5069710;29;8846;-72
2023/03/19 15:45:10;;;;;;;;;28.80;28.60;;;;;;;;5086765;29;8818;-74